Time;durP1;ratioP1;P1;durP2;ratioP2;P2;SDS_P1;SDS_P2;PMS_P1;PMS_P2;Temp;Humidity;BMP_temperature;BMP_pressure;BME280_temperature;BME280_humidity;BME280_pressure;Samples;Min_cycle;Max_cycle;Signal;HPM_P1;HPM_P2
2023/12/13 00:01:26;;;;;;;1.97;1.33;;;;;;;-143.84;74.58;45197.59;5091428;28;20506;-61
2023/12/13 00:03:55;;;;;;;0.80;0.47;;;;;;;-143.84;75.21;45218.53;5091253;28;20471;-61
2023/12/13 00:06:22;;;;;;;1.43;1.33;;;;;;;-143.84;74.87;45195.69;5091027;28;20440;-62
2023/12/13 00:08:49;;;;;;;0.80;0.60;;;;;;;-143.84;74.60;45210.94;5091116;28;20436;-62
2023/12/13 00:11:16;;;;;;;1.57;1.20;;;;;;;-143.84;74.27;45209.03;5091235;28;20628;-62
2023/12/13 00:13:44;;;;;;;0.90;0.80;;;;;;;-143.84;74.07;45214.72;5091428;28;20443;-62
2023/12/13 00:16:12;;;;;;;0.80;0.63;;;;;;;-143.84;73.53;45195.69;5090749;28;20539;-62
2023/12/13 00:18:39;;;;;;;1.30;0.83;;;;;;;-143.84;72.69;45218.53;5091196;28;20424;-62
2023/12/13 00:21:10;;;;;;;0.80;0.50;;;;;;;-143.84;72.45;45210.94;5090939;28;20450;-62
2023/12/13 00:23:37;;;;;;;1.00;0.90;;;;;;;-143.84;72.07;45228.06;5090803;28;20448;-62
2023/12/13 00:26:04;;;;;;;0.93;0.83;;;;;;;-143.84;71.96;45205.22;5090845;28;20517;-61
2023/12/13 00:28:31;;;;;;;0.80;0.60;;;;;;;-143.84;71.81;45218.53;5091175;28;20871;-62
2023/12/13 00:30:58;;;;;;;0.80;0.40;;;;;;;-143.84;71.41;45205.22;5090576;28;20432;-62
2023/12/13 00:33:25;;;;;;;0.80;0.40;;;;;;;-143.84;71.42;45224.25;5090912;28;20796;-61
2023/12/13 00:35:52;;;;;;;1.97;1.13;;;;;;;-143.84;70.67;45207.13;5090505;28;20427;-62
2023/12/13 00:38:21;;;;;;;1.53;1.00;;;;;;;-143.84;70.77;45224.25;5090439;28;20852;-61
2023/12/13 00:40:48;;;;;;;0.80;0.40;;;;;;;-143.84;70.51;45218.53;5090535;28;20440;-61
2023/12/13 00:43:15;;;;;;;0.80;0.50;;;;;;;-143.84;69.76;45199.50;5090599;28;20439;-62
2023/12/13 00:45:42;;;;;;;0.80;0.60;;;;;;;-143.84;69.03;45216.63;5090440;28;20447;-61
2023/12/13 00:48:10;;;;;;;1.30;0.70;;;;;;;-143.84;68.72;45212.84;5090117;28;20444;-62
2023/12/13 00:50:37;;;;;;;2.10;1.17;;;;;;;-143.84;68.14;45205.22;5090387;28;20443;-61
2023/12/13 00:53:04;;;;;;;0.80;0.40;;;;;;;-143.84;67.82;45210.94;5090704;28;20471;-61
2023/12/13 00:55:32;;;;;;;0.80;0.60;;;;;;;-143.84;67.39;45210.94;5090544;28;20436;-62
2023/12/13 00:58:00;;;;;;;0.80;0.50;;;;;;;-143.84;67.00;45210.94;5090604;28;20493;-62
2023/12/13 01:00:27;;;;;;;0.90;0.60;;;;;;;-143.84;66.99;45222.34;5090265;28;20436;-61
2023/12/13 01:02:54;;;;;;;0.80;0.57;;;;;;;-143.84;67.09;45201.41;5090514;28;20447;-62
2023/12/13 01:05:21;;;;;;;2.33;0.60;;;;;;;-143.84;67.21;45229.97;5089783;28;20523;-62
2023/12/13 01:07:48;;;;;;;0.80;0.40;;;;;;;-143.84;66.88;45201.41;5089690;28;20800;-61
2023/12/13 01:10:15;;;;;;;0.80;0.50;;;;;;;-143.84;66.16;45209.03;5089986;28;20449;-61
2023/12/13 01:12:44;;;;;;;2.13;1.57;;;;;;;-143.84;65.90;45203.31;5090003;28;20476;-61
2023/12/13 01:15:11;;;;;;;0.80;0.57;;;;;;;-143.84;66.07;45186.16;5090060;28;20514;-61
2023/12/13 01:17:38;;;;;;;1.30;0.73;;;;;;;-143.84;65.73;45191.88;5090209;28;20954;-62
2023/12/13 01:20:09;;;;;;;0.80;0.60;;;;;;;-143.84;65.33;45222.34;5089753;28;20489;-61
2023/12/13 01:22:36;;;;;;;1.53;1.13;;;;;;;-143.84;64.91;45205.22;5089965;28;20447;-61
2023/12/13 01:25:04;;;;;;;1.13;0.80;;;;;;;-143.84;63.97;45199.50;5089745;28;20509;-62
2023/12/13 01:27:31;;;;;;;0.80;0.40;;;;;;;-143.84;63.96;45189.97;5089759;28;20435;-62
2023/12/13 01:29:59;;;;;;;2.80;1.80;;;;;;;-143.84;63.70;45195.69;5089474;28;20535;-61
2023/12/13 01:32:26;;;;;;;0.80;0.60;;;;;;;-143.84;63.05;45207.13;5089741;28;20467;-62
2023/12/13 01:34:54;;;;;;;0.80;0.40;;;;;;;-143.84;62.83;45226.16;5089706;28;20949;-62
2023/12/13 01:37:21;;;;;;;1.30;0.90;;;;;;;-143.84;61.90;45212.84;5089752;28;20439;-62
2023/12/13 01:39:48;;;;;;;11.50;0.80;;;;;;;-143.84;61.05;45207.13;5089632;28;20431;-62
2023/12/13 01:42:15;;;;;;;0.80;0.40;;;;;;;-143.84;59.76;45210.94;5089620;28;20462;-62
2023/12/13 01:44:43;;;;;;;1.30;0.83;;;;;;;-143.84;58.52;45199.50;5089345;28;20432;-61
2023/12/13 01:47:12;;;;;;;0.80;0.40;;;;;;;-143.84;57.75;45214.72;5089278;28;20962;-61
2023/12/13 01:49:39;;;;;;;0.80;0.40;;;;;;;-143.84;57.23;45201.41;5089699;28;20439;-62
2023/12/13 01:52:08;;;;;;;0.80;0.40;;;;;;;-143.84;56.57;45197.59;5089644;28;20483;-61
2023/12/13 01:54:37;;;;;;;0.90;0.53;;;;;;;-143.84;56.04;45184.25;5089217;28;20936;-62
2023/12/13 01:57:05;;;;;;;0.90;0.60;;;;;;;-143.84;55.68;45199.50;5089254;28;20436;-62
2023/12/13 01:59:33;;;;;;;1.00;0.80;;;;;;;-143.84;55.26;45220.44;5088538;28;20956;-61
2023/12/13 02:02:01;;;;;;;1.10;0.90;;;;;;;-143.84;54.92;45201.41;5088212;28;20475;-61
2023/12/13 02:04:29;;;;;;;0.80;0.57;;;;;;;-143.84;54.61;45193.78;5088158;28;20938;-61
2023/12/13 02:06:57;;;;;;;0.80;0.50;;;;;;;-143.84;54.23;45193.78;5088193;28;20508;-61
2023/12/13 02:09:24;;;;;;;0.80;0.50;;;;;;;-143.84;54.19;45170.94;5088265;28;20782;-61
2023/12/13 02:11:51;;;;;;;0.80;0.60;;;;;;;-143.84;53.86;45228.06;5088114;28;20471;-61
2023/12/13 02:14:18;;;;;;;0.83;0.60;;;;;;;-143.84;53.28;45203.31;5087993;28;20444;-61
2023/12/13 02:16:46;;;;;;;0.80;0.40;;;;;;;-143.84;52.71;45191.88;5087846;28;20498;-61
2023/12/13 02:19:13;;;;;;;1.00;0.60;;;;;;;-143.84;52.43;45237.59;5090161;28;20446;-61
2023/12/13 02:21:41;;;;;;;0.80;0.40;;;;;;;-143.84;52.41;45184.25;5091274;28;20512;-61
2023/12/13 02:24:10;;;;;;;1.47;1.30;;;;;;;-143.84;55.13;45189.97;5091074;28;20954;-61
2023/12/13 02:26:40;;;;;;;1.60;0.90;;;;;;;-143.84;64.96;45218.53;5091323;28;20443;-61
2023/12/13 02:29:09;;;;;;;1.33;1.23;;;;;;;-143.84;72.45;45226.16;5091665;28;20933;-61
2023/12/13 02:31:37;;;;;;;0.90;0.70;;;;;;;-143.84;72.78;45220.44;5091082;28;20447;-61
2023/12/13 02:34:04;;;;;;;0.80;0.50;;;;;;;-143.84;72.08;45209.03;5090929;28;20440;-61
2023/12/13 02:36:31;;;;;;;1.00;0.90;;;;;;;-143.84;71.15;45281.38;5091312;28;20946;-61
2023/12/13 02:38:58;;;;;;;1.00;0.87;;;;;;;-143.84;69.92;45197.59;5091288;28;20443;-61
2023/12/13 02:41:27;;;;;;;1.27;1.13;;;;;;;-143.84;71.33;45199.50;5091173;28;20436;-61
2023/12/13 02:43:54;;;;;;;3.30;1.00;;;;;;;-143.84;71.54;45191.88;5091894;28;20440;-61
2023/12/13 02:46:21;;;;;;;1.40;0.70;;;;;;;-143.84;72.26;45205.22;5091483;28;20439;-61
2023/12/13 02:48:48;;;;;;;0.90;0.80;;;;;;;-143.84;72.76;45186.16;5091381;28;20442;-61
2023/12/13 02:51:15;;;;;;;2.13;2.03;;;;;;;-143.84;72.72;45203.31;5091415;28;20827;-61
2023/12/13 02:53:43;;;;;;;1.93;1.57;;;;;;;-143.84;71.81;45209.03;5091263;28;20475;-61
2023/12/13 02:56:10;;;;;;;1.20;0.90;;;;;;;-143.84;71.32;45214.72;5091424;28;20447;-61
2023/12/13 02:58:38;;;;;;;2.30;0.97;;;;;;;-143.84;70.26;45205.22;5091544;28;20859;-61
2023/12/13 03:01:06;;;;;;;1.60;1.43;;;;;;;-143.84;69.49;45233.78;5091262;28;20439;-61
2023/12/13 03:03:33;;;;;;;1.13;1.03;;;;;;;-143.84;69.71;45205.22;5091243;28;20447;-61
2023/12/13 03:06:00;;;;;;;0.83;0.53;;;;;;;-143.84;69.78;45216.63;5091250;28;20444;-61
2023/12/13 03:08:27;;;;;;;1.30;1.00;;;;;;;-143.84;70.17;45207.13;5091074;28;20914;-61
2023/12/13 03:10:54;;;;;;;0.90;0.60;;;;;;;-143.84;69.90;45224.25;5090827;28;20444;-61
2023/12/13 03:13:22;;;;;;;0.80;0.40;;;;;;;-143.84;69.84;45209.03;5091228;28;20480;-61
2023/12/13 03:15:50;;;;;;;1.57;1.47;;;;;;;-143.84;70.10;45218.53;5090934;28;20925;-61
2023/12/13 03:18:17;;;;;;;3.80;0.63;;;;;;;-143.84;69.77;45201.41;5090847;28;20479;-61
2023/12/13 03:20:47;;;;;;;0.80;0.40;;;;;;;-143.84;69.47;45245.19;5090788;28;20799;-61
2023/12/13 03:23:14;;;;;;;1.60;0.77;;;;;;;-143.84;69.60;45214.72;5090758;28;20444;-61
2023/12/13 03:25:42;;;;;;;0.80;0.50;;;;;;;-143.84;69.82;45220.44;5090572;28;20515;-61
2023/12/13 03:28:09;;;;;;;0.80;0.40;;;;;;;-143.84;70.27;45205.22;5087017;28;20449;-62
2023/12/13 03:30:36;;;;;;;1.20;0.60;;;;;;;-143.84;70.79;45199.50;5070986;28;20539;-62
2023/12/13 03:33:04;;;;;;;1.20;1.10;;;;;;;-143.84;71.29;45201.41;5071431;28;20468;-61
2023/12/13 03:35:32;;;;;;;2.13;1.47;;;;;;;-143.84;71.79;45205.22;5071217;28;20436;-62
2023/12/13 03:37:59;;;;;;;0.80;0.70;;;;;;;-143.84;71.99;45184.25;5071133;28;20443;-62
2023/12/13 03:40:26;;;;;;;0.80;0.70;;;;;;;-143.84;72.25;45226.16;5071605;28;20962;-62
2023/12/13 03:42:53;;;;;;;0.97;0.80;;;;;;;-143.84;72.92;45207.13;5071406;28;20453;-62
2023/12/13 03:45:23;;;;;;;1.27;1.17;;;;;;;-143.84;73.20;45214.72;5070885;28;20483;-62
2023/12/13 03:47:50;;;;;;;1.20;1.10;;;;;;;-143.84;73.57;45231.88;5071322;28;20441;-60
2023/12/13 03:50:18;;;;;;;0.80;0.53;;;;;;;-143.84;73.92;45224.25;5071482;28;20452;-61
2023/12/13 03:52:45;;;;;;;0.87;0.67;;;;;;;-143.84;74.90;45235.69;5071213;28;20480;-63
2023/12/13 03:55:13;;;;;;;2.03;0.90;;;;;;;-143.84;74.47;45237.59;5070979;28;20464;-62
2023/12/13 03:57:40;;;;;;;1.30;1.17;;;;;;;-143.84;75.46;45199.50;5070629;28;20528;-62
2023/12/13 04:00:08;;;;;;;0.80;0.50;;;;;;;-143.84;76.38;45203.31;5070493;28;20493;-62
2023/12/13 04:02:36;;;;;;;0.80;0.50;;;;;;;-143.84;76.32;45231.88;5070940;28;20441;-62
2023/12/13 04:05:03;;;;;;;0.80;0.77;;;;;;;-143.84;77.06;45203.31;5070869;28;20471;-63
2023/12/13 04:07:32;;;;;;;1.80;1.17;;;;;;;-143.84;77.40;45214.72;5071221;28;21349;-61
2023/12/13 04:09:59;;;;;;;0.93;0.87;;;;;;;-143.84;78.08;45228.06;5070885;28;20444;-60
2023/12/13 04:12:26;;;;;;;2.50;1.93;;;;;;;-143.84;78.40;45214.72;5070385;28;20441;-62
2023/12/13 04:14:53;;;;;;;1.10;1.00;;;;;;;-143.84;79.35;45214.72;5070025;28;20440;-62
2023/12/13 04:17:20;;;;;;;0.80;0.67;;;;;;;-143.84;81.33;45195.69;5070100;28;20486;-62
2023/12/13 04:19:47;;;;;;;0.80;0.70;;;;;;;-143.84;81.38;45235.69;5070337;28;20437;-62
2023/12/13 04:22:14;;;;;;;1.50;1.03;;;;;;;-143.84;82.22;45201.41;5070459;28;20463;-61
2023/12/13 04:24:43;;;;;;;0.80;0.40;;;;;;;-143.84;83.10;45203.31;5069747;28;20432;-62
2023/12/13 04:27:10;;;;;;;0.87;0.57;;;;;;;-143.84;83.73;45182.38;5070058;28;20429;-62
2023/12/13 04:29:38;;;;;;;1.60;1.50;;;;;;;-143.84;84.23;45197.59;5069809;28;20789;-61
2023/12/13 04:32:05;;;;;;;0.80;0.50;;;;;;;-143.84;84.72;45199.50;5070285;28;20502;-62
2023/12/13 04:34:32;;;;;;;1.90;1.57;;;;;;;-143.84;84.78;45210.94;5071085;28;20480;-61
2023/12/13 04:36:59;;;;;;;1.10;0.77;;;;;;;-143.84;85.64;45197.59;5110415;28;20447;-62
2023/12/13 04:39:26;;;;;;;0.80;0.50;;;;;;;-143.84;85.17;45201.41;5110775;28;20443;-62
2023/12/13 04:41:55;;;;;;;0.90;0.60;;;;;;;-143.84;85.71;45231.88;5109275;28;20496;-63
2023/12/13 04:44:27;;;;;;;1.17;0.80;;;;;;;-143.84;85.50;45203.31;5110386;28;20434;-62
2023/12/13 04:46:54;;;;;;;1.40;0.60;;;;;;;-143.84;86.54;45207.13;5110381;27;20439;-63
2023/12/13 04:49:22;;;;;;;0.80;0.57;;;;;;;-143.84;86.74;45218.53;5110385;28;20437;-63
2023/12/13 04:51:49;;;;;;;1.67;1.47;;;;;;;-143.84;86.37;45226.16;5110432;28;20806;-62
2023/12/13 04:54:16;;;;;;;1.10;0.80;;;;;;;-143.84;85.97;45209.03;5110293;28;20979;-61
2023/12/13 04:56:44;;;;;;;0.80;0.50;;;;;;;-143.84;86.39;45235.69;5110217;28;20503;-63
2023/12/13 04:59:12;;;;;;;1.00;0.63;;;;;;;-143.84;85.53;45239.50;5110183;28;20463;-62
2023/12/13 05:01:39;;;;;;;1.10;0.80;;;;;;;-143.84;85.87;45195.69;5110336;28;20443;-63
2023/12/13 05:04:06;;;;;;;3.07;1.23;;;;;;;-143.84;85.17;45212.84;5110158;28;20447;-62
2023/12/13 05:06:33;;;;;;;0.80;0.50;;;;;;;-143.84;85.40;45224.25;5110266;28;20445;-63
2023/12/13 05:09:00;;;;;;;2.33;0.90;;;;;;;-143.84;84.71;45220.44;5110331;28;20496;-62
2023/12/13 05:11:28;;;;;;;5.50;1.23;;;;;;;-143.84;84.28;45212.84;5110171;28;20442;-62
2023/12/13 05:13:55;;;;;;;1.03;0.93;;;;;;;-143.84;83.79;45228.06;5110222;28;20478;-62
2023/12/13 05:16:23;;;;;;;1.10;0.70;;;;;;;-143.84;83.83;45212.84;5109782;27;20489;-62
2023/12/13 05:18:51;;;;;;;2.77;1.90;;;;;;;-143.84;83.49;45228.06;5110155;28;20466;-62
2023/12/13 05:21:18;;;;;;;1.20;1.00;;;;;;;-143.84;83.10;45220.44;5110042;28;20469;-63
2023/12/13 05:23:45;;;;;;;1.10;0.93;;;;;;;-143.84;82.64;45222.34;5109938;28;20526;-62
2023/12/13 05:26:12;;;;;;;1.33;1.23;;;;;;;-143.84;82.44;45226.16;5109711;28;20447;-61
2023/12/13 05:28:39;;;;;;;12.20;1.03;;;;;;;-143.84;82.72;45210.94;5110205;28;20453;-62
2023/12/13 05:31:07;;;;;;;1.60;1.50;;;;;;;-143.84;82.70;45241.41;5109720;28;20433;-62
2023/12/13 05:33:35;;;;;;;1.27;0.80;;;;;;;-143.84;82.87;45249.00;5109631;28;20478;-62
2023/12/13 05:36:02;;;;;;;0.80;0.60;;;;;;;-143.84;83.05;45235.69;5109537;28;20535;-62
2023/12/13 05:38:29;;;;;;;1.77;1.00;;;;;;;-143.84;82.58;45228.06;5109611;28;20563;-62
2023/12/13 05:40:59;;;;;;;0.80;0.60;;;;;;;-143.84;83.24;45212.84;5110106;28;20443;-61
2023/12/13 05:43:26;;;;;;;0.80;0.50;;;;;;;-143.84;82.93;45224.25;5109618;28;21020;-62
2023/12/13 05:45:54;;;;;;;0.80;0.63;;;;;;;-143.84;83.38;45212.84;5109825;28;20444;-62
2023/12/13 05:48:21;;;;;;;0.80;0.67;;;;;;;-143.84;83.52;45216.63;5109383;28;20445;-62
2023/12/13 05:50:50;;;;;;;1.43;1.07;;;;;;;-143.84;84.05;45243.31;5096812;28;20460;-62
2023/12/13 05:53:17;;;;;;;0.80;0.50;;;;;;;-143.84;84.09;45207.13;5086493;28;20483;-61
2023/12/13 05:55:44;;;;;;;1.83;1.73;;;;;;;-143.84;83.51;45209.03;5074289;28;20459;-62
2023/12/13 05:58:11;;;;;;;1.33;1.23;;;;;;;-143.84;83.49;45210.94;5073294;28;20950;-62
2023/12/13 06:00:38;;;;;;;0.90;0.63;;;;;;;-143.84;83.46;45233.78;5073114;28;20444;-62
2023/12/13 06:03:06;;;;;;;2.27;2.10;;;;;;;-143.84;83.82;45174.75;5073196;28;20973;-63
2023/12/13 06:05:33;;;;;;;16.53;2.23;;;;;;;-143.84;84.15;45222.34;5072871;28;20432;-62
2023/12/13 06:08:01;;;;;;;1.03;0.93;;;;;;;-143.84;84.06;45218.53;5073026;28;20535;-62
2023/12/13 06:10:29;;;;;;;5.13;1.20;;;;;;;-143.84;84.50;45229.97;5072912;28;20479;-61
2023/12/13 06:12:57;;;;;;;0.80;0.70;;;;;;;-143.84;85.07;45218.53;5073197;28;20448;-62
2023/12/13 06:15:24;;;;;;;2.17;1.97;;;;;;;-143.84;85.31;45214.72;5073163;28;20607;-62
2023/12/13 06:17:51;;;;;;;1.10;1.00;;;;;;;-143.84;86.23;45205.22;5072630;28;20514;-62
2023/12/13 06:20:18;;;;;;;1.20;1.07;;;;;;;-143.84;87.22;45201.41;5072478;28;20444;-62
2023/12/13 06:22:45;;;;;;;2.30;1.17;;;;;;;-143.84;87.82;45214.72;5072800;28;20871;-62
2023/12/13 06:25:14;;;;;;;1.53;0.73;;;;;;;-143.84;87.99;45191.88;5072742;28;20923;-63
2023/12/13 06:27:41;;;;;;;1.67;1.00;;;;;;;-143.84;88.36;45207.13;5072667;28;20437;-62
2023/12/13 06:30:10;;;;;;;0.80;0.50;;;;;;;-143.84;88.63;45209.03;5072890;28;20432;-63
2023/12/13 06:32:37;;;;;;;1.20;1.10;;;;;;;-143.84;88.84;45201.41;5072262;28;20792;-62
2023/12/13 06:35:05;;;;;;;1.70;1.60;;;;;;;-143.84;88.95;45214.72;5072937;28;20490;-63
2023/12/13 06:37:32;;;;;;;1.00;0.80;;;;;;;-143.84;88.91;45220.44;5072577;28;20433;-61
2023/12/13 06:40:00;;;;;;;0.93;0.83;;;;;;;-143.84;88.82;45176.66;5072221;28;20432;-62
2023/12/13 06:42:29;;;;;;;1.23;1.13;;;;;;;-143.84;88.76;45205.22;5072482;28;20448;-62
2023/12/13 06:44:56;;;;;;;1.63;1.53;;;;;;;-143.84;88.82;45212.84;5072522;28;20506;-61
2023/12/13 06:47:23;;;;;;;4.60;1.13;;;;;;;-143.84;88.80;45178.56;5072326;28;20448;-62
2023/12/13 06:49:50;;;;;;;6.50;1.00;;;;;;;-143.84;88.45;45195.69;5094998;28;20454;-62
2023/12/13 06:52:17;;;;;;;1.60;1.50;;;;;;;-143.84;88.12;45203.31;5112863;28;20442;-61
2023/12/13 06:54:44;;;;;;;1.80;1.70;;;;;;;-143.84;88.08;45237.59;5112541;27;20478;-62
2023/12/13 06:57:13;;;;;;;2.43;1.57;;;;;;;-143.84;87.71;45201.41;5112923;28;20488;-62
2023/12/13 06:59:42;;;;;;;2.23;2.13;;;;;;;-143.84;87.02;45218.53;5112225;28;20443;-62
2023/12/13 07:02:09;;;;;;;2.53;1.17;;;;;;;-143.84;86.47;45197.59;5111965;28;20469;-62
2023/12/13 07:04:36;;;;;;;2.50;1.10;;;;;;;-143.84;86.49;45220.44;5110460;28;20814;-62
2023/12/13 07:07:04;;;;;;;2.60;1.93;;;;;;;-143.84;85.36;45226.16;5112212;27;20427;-62
2023/12/13 07:09:31;;;;;;;1.00;0.73;;;;;;;-143.84;84.92;45207.13;5111922;28;20442;-62
2023/12/13 07:11:58;;;;;;;5.70;1.10;;;;;;;-143.84;84.23;45193.78;5111588;28;20439;-62
2023/12/13 07:14:25;;;;;;;3.10;1.80;;;;;;;-143.84;84.68;45201.41;5111756;28;20485;-62
2023/12/13 07:16:54;;;;;;;2.10;1.57;;;;;;;-143.84;84.20;45188.06;5111570;28;20475;-62
2023/12/13 07:19:21;;;;;;;3.73;1.93;;;;;;;-143.84;84.14;45209.03;5112719;28;20982;-63
2023/12/13 07:21:48;;;;;;;2.50;1.40;;;;;;;-143.84;83.43;45176.66;5112435;27;20492;-62
2023/12/13 07:24:15;;;;;;;2.40;1.60;;;;;;;-143.84;83.52;45169.03;5111848;28;20948;-61
2023/12/13 07:26:42;;;;;;;3.53;2.27;;;;;;;-143.84;82.23;45209.03;5111816;28;20439;-61
2023/12/13 07:29:10;;;;;;;1.73;1.30;;;;;;;-143.84;81.15;45216.63;5111533;28;21061;-62
2023/12/13 07:31:39;;;;;;;1.57;1.20;;;;;;;-143.84;80.09;45189.97;5111612;28;20948;-62
2023/12/13 07:34:09;;;;;;;3.23;1.33;;;;;;;-143.84;80.47;45188.06;5111970;28;20501;-62
2023/12/13 07:36:37;;;;;;;1.17;1.07;;;;;;;-143.84;80.20;45205.22;5111721;28;21216;-61
2023/12/13 07:39:04;;;;;;;1.20;1.03;;;;;;;-143.84;79.59;45174.75;5111936;28;20445;-61
2023/12/13 07:41:31;;;;;;;3.03;1.27;;;;;;;-143.84;79.33;45178.56;5111720;28;20561;-61
2023/12/13 07:43:59;;;;;;;1.10;1.00;;;;;;;-143.84;78.59;45186.16;5112035;28;20439;-61
2023/12/13 07:46:26;;;;;;;1.33;1.23;;;;;;;-143.84;78.82;45195.69;5111465;28;20486;-61
2023/12/13 07:48:54;;;;;;;3.97;1.70;;;;;;;-143.84;78.19;45195.69;5111498;28;20463;-61
2023/12/13 07:51:22;;;;;;;4.40;1.70;;;;;;;-143.84;77.69;45201.41;5111068;28;20470;-61
2023/12/13 07:53:50;;;;;;;1.23;1.13;;;;;;;-143.84;77.17;45163.31;5111099;28;20479;-61
2023/12/13 07:56:17;;;;;;;1.33;1.23;;;;;;;-143.84;76.80;45167.13;5111087;28;20500;-61
2023/12/13 07:58:45;;;;;;;1.40;0.90;;;;;;;-143.84;75.29;45174.75;5111289;28;20863;-62
2023/12/13 08:01:15;;;;;;;2.47;1.80;;;;;;;-143.84;73.55;45174.75;5111106;28;20467;-62
2023/12/13 08:03:43;;;;;;;1.00;0.77;;;;;;;-143.84;73.11;45157.59;5110797;28;20439;-61
2023/12/13 08:06:12;;;;;;;5.80;1.80;;;;;;;-143.84;72.57;45167.13;5110579;28;20434;-61
2023/12/13 08:08:42;;;;;;;1.40;1.30;;;;;;;-143.84;69.37;45165.22;5110952;28;20522;-62
2023/12/13 08:11:09;;;;;;;1.70;1.60;;;;;;;-143.84;68.27;45165.22;5110463;28;20474;-62
2023/12/13 08:13:36;;;;;;;1.03;0.93;;;;;;;-143.84;66.10;45151.91;5110347;28;20443;-60
2023/12/13 08:16:05;;;;;;;1.33;1.23;;;;;;;-143.84;65.43;45136.66;5110169;28;20454;-61
2023/12/13 08:18:32;;;;;;;1.27;1.17;;;;;;;-143.84;63.37;45155.69;5110654;28;20475;-61
2023/12/13 08:20:59;;;;;;;0.90;0.73;;;;;;;-143.84;63.28;45184.25;5110377;28;20447;-62
2023/12/13 08:23:26;;;;;;;2.07;1.40;;;;;;;-143.84;63.63;45186.16;5110489;28;20435;-61
2023/12/13 08:25:55;;;;;;;1.17;0.60;;;;;;;-143.84;65.39;45199.50;5110292;28;20952;-61
2023/12/13 08:28:23;;;;;;;1.30;0.80;;;;;;;-143.84;66.75;45170.94;5110198;28;20443;-61
2023/12/13 08:30:50;;;;;;;1.30;1.07;;;;;;;-143.84;68.47;45172.84;5110120;28;20423;-61
2023/12/13 08:33:17;;;;;;;2.13;0.80;;;;;;;-143.84;70.36;45144.28;5110286;28;20443;-60
2023/12/13 08:35:44;;;;;;;1.93;1.37;;;;;;;-143.84;71.31;45163.31;5109932;27;20482;-61
2023/12/13 08:38:11;;;;;;;1.30;0.73;;;;;;;-143.84;70.94;45174.75;5110155;28;20523;-62
2023/12/13 08:40:39;;;;;;;1.00;0.60;;;;;;;-143.84;70.07;45178.56;5110268;28;20483;-61
2023/12/13 08:43:07;;;;;;;1.10;0.83;;;;;;;-143.84;71.49;45176.66;5110060;28;20510;-61
2023/12/13 08:45:34;;;;;;;0.90;0.80;;;;;;;-143.84;72.44;45170.94;5110015;28;20442;-61
2023/12/13 08:48:01;;;;;;;0.90;0.53;;;;;;;-143.84;70.88;45172.84;5109747;27;20946;-61
2023/12/13 08:50:28;;;;;;;0.90;0.70;;;;;;;-143.84;72.42;45184.25;5109727;28;20439;-61
2023/12/13 08:52:55;;;;;;;1.47;0.80;;;;;;;-143.84;72.44;45184.25;5109780;28;20764;-62
2023/12/13 08:55:23;;;;;;;1.30;1.07;;;;;;;-143.84;74.17;45193.78;5109685;28;20535;-62
2023/12/13 08:57:50;;;;;;;0.90;0.80;;;;;;;-143.84;75.21;45169.03;5109675;28;20536;-61
2023/12/13 09:00:19;;;;;;;1.10;0.97;;;;;;;-143.84;75.45;45159.50;5109660;28;20430;-61
2023/12/13 09:02:46;;;;;;;1.10;1.00;;;;;;;-143.84;76.33;45178.56;5109617;28;20952;-61
2023/12/13 09:05:13;;;;;;;0.90;0.70;;;;;;;-143.84;77.84;45180.47;5109523;28;20549;-61
2023/12/13 09:07:41;;;;;;;1.60;0.80;;;;;;;-143.84;78.34;45174.75;5109766;28;20949;-61
2023/12/13 09:10:09;;;;;;;1.00;0.60;;;;;;;-143.84;79.19;45209.03;5109569;28;20457;-61
2023/12/13 09:12:36;;;;;;;7.70;1.83;;;;;;;-143.84;79.15;45186.16;5109799;28;21382;-61
2023/12/13 09:15:06;;;;;;;2.03;1.83;;;;;;;-143.84;79.22;45157.59;5109719;28;21338;-60
2023/12/13 09:17:35;;;;;;;1.57;0.83;;;;;;;-143.84;79.44;45184.25;5109444;28;20543;-61
2023/12/13 09:20:02;;;;;;;0.80;0.60;;;;;;;-143.84;79.96;45188.06;5109342;28;20451;-61
2023/12/13 09:22:30;;;;;;;1.13;0.83;;;;;;;-143.84;79.80;45178.56;5109579;28;20435;-61
2023/12/13 09:24:58;;;;;;;1.33;1.23;;;;;;;-143.84;79.82;45193.78;5109634;28;20443;-62
2023/12/13 09:27:25;;;;;;;3.23;1.83;;;;;;;-143.84;79.82;45203.31;5108578;28;20941;-60
2023/12/13 09:29:52;;;;;;;1.80;1.70;;;;;;;-143.84;80.08;45188.06;5109330;28;20808;-62
2023/12/13 09:32:20;;;;;;;1.77;1.43;;;;;;;-143.84;79.45;45199.50;5109095;28;20523;-61
2023/12/13 09:34:48;;;;;;;5.27;2.27;;;;;;;-143.84;80.73;45193.78;5109340;28;20483;-61
2023/12/13 09:37:16;;;;;;;1.43;1.20;;;;;;;-143.84;80.21;45176.66;5109590;28;20909;-61
2023/12/13 09:39:45;;;;;;;1.60;1.50;;;;;;;-143.84;79.15;45193.78;5109363;28;20767;-62
2023/12/13 09:42:13;;;;;;;2.50;1.47;;;;;;;-143.84;78.93;45189.97;5097674;28;20440;-61
2023/12/13 09:44:42;;;;;;;1.97;1.63;;;;;;;-143.84;77.92;45184.25;5088891;28;20443;-61
2023/12/13 09:47:11;;;;;;;2.00;1.90;;;;;;;-143.84;77.46;45184.25;5089206;28;20517;-62
2023/12/13 09:49:40;;;;;;;5.13;2.37;;;;;;;-143.84;78.04;45174.75;5089036;28;20448;-61
2023/12/13 09:52:10;;;;;;;2.40;1.20;;;;;;;-143.84;78.00;45170.94;5089169;28;20561;-61
2023/12/13 09:54:39;;;;;;;1.50;1.40;;;;;;;-143.84;74.66;45180.47;5088890;28;20475;-61
2023/12/13 09:57:06;;;;;;;1.37;1.27;;;;;;;-143.84;74.75;45186.16;5088952;28;20565;-61
2023/12/13 09:59:33;;;;;;;2.20;1.27;;;;;;;-143.84;73.39;45210.94;5089104;28;20440;-61
2023/12/13 10:02:01;;;;;;;1.27;1.17;;;;;;;-143.84;72.98;45170.94;5088655;28;20446;-61
2023/12/13 10:04:29;;;;;;;2.30;1.73;;;;;;;-143.84;72.34;45180.47;5088635;28;20528;-61
2023/12/13 10:06:56;;;;;;;0.80;0.53;;;;;;;-143.84;73.16;45195.69;5088755;28;20436;-62
2023/12/13 10:09:29;;;;;;;2.50;2.10;;;;;;;-143.84;73.11;45191.88;5088541;28;20447;-61
2023/12/13 10:11:58;;;;;;;1.13;1.03;;;;;;;-143.84;71.65;45169.03;5088602;28;20444;-61
2023/12/13 10:14:25;;;;;;;1.60;1.50;;;;;;;-143.84;71.02;45180.47;5088578;28;20436;-61
2023/12/13 10:16:53;;;;;;;3.50;3.20;;;;;;;-143.84;72.40;45178.56;5088363;28;20479;-61
2023/12/13 10:19:20;;;;;;;2.30;1.43;;;;;;;-143.84;71.32;45172.84;5088544;28;20440;-61
2023/12/13 10:21:49;;;;;;;0.90;0.80;;;;;;;-143.84;72.32;45180.47;5088426;28;20432;-61
2023/12/13 10:24:16;;;;;;;1.90;1.80;;;;;;;-143.84;72.13;45174.75;5088360;28;20455;-61
2023/12/13 10:26:45;;;;;;;1.90;1.23;;;;;;;-143.84;72.12;45167.13;5088421;28;20501;-60
2023/12/13 10:29:12;;;;;;;2.10;1.80;;;;;;;-143.84;72.28;45163.31;5088518;28;20447;-62
2023/12/13 10:31:39;;;;;;;6.93;3.07;;;;;;;-143.84;72.51;45186.16;5088225;28;20446;-61
2023/12/13 10:34:06;;;;;;;1.20;1.10;;;;;;;-143.84;73.10;45197.59;5088835;28;20424;-61
2023/12/13 10:36:36;;;;;;;2.50;1.80;;;;;;;-143.84;72.55;45184.25;5088404;28;20476;-61
2023/12/13 10:39:05;;;;;;;2.57;2.00;;;;;;;-143.84;71.61;45216.63;5088790;28;21175;-61
2023/12/13 10:41:33;;;;;;;3.17;1.50;;;;;;;-143.84;74.27;45209.03;5092092;28;20439;-62
2023/12/13 10:44:03;;;;;;;0.87;0.70;;;;;;;-143.84;74.65;45193.78;5092202;28;20913;-61
2023/12/13 10:46:35;;;;;;;1.30;1.17;;;;;;;-143.84;74.09;45193.78;5092100;28;20475;-61
2023/12/13 10:49:03;;;;;;;1.40;1.30;;;;;;;-143.84;73.44;45191.88;5091946;28;20518;-61
2023/12/13 10:51:32;;;;;;;0.93;0.83;;;;;;;-143.84;73.00;45151.91;5092110;28;20493;-61
2023/12/13 10:54:00;;;;;;;1.97;1.10;;;;;;;-143.84;72.39;45170.94;5091867;28;20435;-61
2023/12/13 10:56:27;;;;;;;2.00;1.80;;;;;;;-143.84;72.14;45193.78;5091760;28;20471;-61
2023/12/13 10:58:55;;;;;;;2.37;2.27;;;;;;;-143.84;72.78;45169.03;5091390;28;20440;-61
2023/12/13 11:01:24;;;;;;;2.80;2.10;;;;;;;-143.84;72.99;45193.78;5091454;28;20526;-61
2023/12/13 11:03:58;;;;;;;1.80;1.67;;;;;;;-143.84;73.59;45184.25;5091640;28;20436;-62
2023/12/13 11:06:28;;;;;;;3.43;1.77;;;;;;;-143.84;74.16;45157.59;5091567;28;20444;-61
2023/12/13 11:08:55;;;;;;;6.60;2.17;;;;;;;-143.84;74.93;45172.84;5091405;28;20969;-61
2023/12/13 11:11:29;;;;;;;1.77;1.50;;;;;;;-143.84;75.98;45161.41;5091373;28;20954;-61
2023/12/13 11:13:56;;;;;;;1.83;1.70;;;;;;;-143.84;76.77;45188.06;5091253;28;20490;-61
2023/12/13 11:16:26;;;;;;;2.07;1.60;;;;;;;-143.84;78.33;45176.66;5090968;28;20503;-61
2023/12/13 11:18:54;;;;;;;2.13;1.50;;;;;;;-143.84;78.01;45188.06;5091282;28;20953;-61